createdAt,value
2018-05-29T00:00:27.963Z,21.37
2018-05-29T00:02:56.215Z,21.57
2018-05-29T00:05:24.459Z,21.80
2018-05-29T00:07:52.723Z,22.53
2018-05-29T00:10:20.970Z,22.20
2018-05-29T00:12:49.227Z,23.20
2018-05-29T00:15:17.471Z,22.83
2018-05-29T00:17:46.483Z,21.33
2018-05-29T00:20:15.131Z,22.40
2018-05-29T00:22:43.397Z,22.93
2018-05-29T00:25:11.610Z,24.43
2018-05-29T00:27:39.843Z,23.33
2018-05-29T00:30:08.095Z,22.30
2018-05-29T00:32:36.335Z,23.10
2018-05-29T00:35:04.587Z,24.03
2018-05-29T00:37:33.600Z,22.00
2018-05-29T00:40:01.854Z,22.33
2018-05-29T00:42:30.089Z,24.23
2018-05-29T00:44:58.395Z,22.50
2018-05-29T00:47:27.401Z,23.20
2018-05-29T00:49:56.427Z,23.40
2018-05-29T00:52:24.671Z,24.00
2018-05-29T00:55:04.915Z,23.53
2018-05-29T00:57:33.911Z,24.43
2018-05-29T01:00:03.296Z,23.90
2018-05-29T01:02:31.512Z,23.27
2018-05-29T01:04:59.761Z,24.70
2018-05-29T01:07:28.003Z,24.27
2018-05-29T01:09:56.270Z,25.50
2018-05-29T01:12:24.507Z,25.47
2018-05-29T01:14:52.763Z,24.03
2018-05-29T01:17:21.005Z,25.30
2018-05-29T01:19:49.255Z,26.47
2018-05-29T01:22:17.495Z,25.73
2018-05-29T01:24:45.744Z,25.83
2018-05-29T01:27:14.758Z,26.43
2018-05-29T01:29:42.998Z,26.00
2018-05-29T01:32:11.239Z,26.37
2018-05-29T01:34:39.499Z,28.27
2018-05-29T01:37:07.730Z,28.17
2018-05-29T01:39:36.739Z,27.13
2018-05-29T01:42:04.999Z,27.93
2018-05-29T01:44:33.999Z,26.73
2018-05-29T01:47:03.024Z,27.13
2018-05-29T01:49:31.269Z,28.10
2018-05-29T01:52:00.292Z,28.10
2018-05-29T01:54:28.527Z,27.80
2018-05-29T01:56:57.549Z,29.07
2018-05-29T01:59:25.782Z,26.40
2018-05-29T02:01:54.808Z,25.43
2018-05-29T02:04:23.064Z,26.30
2018-05-29T02:06:52.072Z,27.73
2018-05-29T02:09:20.314Z,26.03
2018-05-29T02:11:49.337Z,26.50
2018-05-29T02:14:17.579Z,26.77
2018-05-29T02:16:46.599Z,27.10
2018-05-29T02:19:14.843Z,27.53
2018-05-29T02:21:43.867Z,27.30
2018-05-29T02:24:12.204Z,26.27
2018-05-29T02:26:40.467Z,26.77
2018-05-29T02:29:08.683Z,27.10
2018-05-29T02:31:36.938Z,26.33
2018-05-29T02:34:05.944Z,28.13
2018-05-29T02:36:34.964Z,27.20
2018-05-29T02:39:03.207Z,27.77
2018-05-29T02:41:32.232Z,27.77
2018-05-29T02:44:00.460Z,28.50
2018-05-29T02:46:29.491Z,26.83
2018-05-29T02:48:57.739Z,26.17
2018-05-29T02:51:26.744Z,28.37
2018-05-29T02:53:55.003Z,27.67
2018-05-29T02:56:24.010Z,27.97
2018-05-29T02:58:52.263Z,28.23
2018-05-29T03:01:21.269Z,28.37
2018-05-29T03:03:49.531Z,27.73
2018-05-29T03:06:18.531Z,27.93
2018-05-29T03:08:46.787Z,27.87
2018-05-29T03:11:15.795Z,26.87
2018-05-29T03:13:44.822Z,28.80
2018-05-29T03:16:13.055Z,27.70
2018-05-29T03:18:42.078Z,27.67
2018-05-29T03:21:10.318Z,26.83
2018-05-29T03:23:39.334Z,26.90
2018-05-29T03:26:07.572Z,28.30
2018-05-29T03:28:35.826Z,27.97
2018-05-29T03:31:04.072Z,26.97
2018-05-29T03:33:32.324Z,27.60
2018-05-29T03:36:00.575Z,27.97
2018-05-29T03:38:29.602Z,28.17
2018-05-29T03:40:57.839Z,27.80
2018-05-29T03:43:26.855Z,28.17
2018-05-29T03:45:55.104Z,27.40
2018-05-29T03:48:23.355Z,28.80
2018-05-29T03:50:51.602Z,28.00
2018-05-29T03:53:19.847Z,28.73
2018-05-29T03:55:48.086Z,27.77
2018-05-29T03:58:16.353Z,27.87
2018-05-29T04:00:44.589Z,28.10
2018-05-29T04:03:13.656Z,27.30
2018-05-29T04:05:42.662Z,26.27
2018-05-29T04:08:10.919Z,27.53
2018-05-29T04:10:39.924Z,27.80
2018-05-29T04:13:08.179Z,27.53
2018-05-29T04:15:37.183Z,27.87
2018-05-29T04:18:05.442Z,26.93
2018-05-29T04:20:34.454Z,26.80
2018-05-29T04:23:02.711Z,28.00
2018-05-29T04:25:31.711Z,26.10
2018-05-29T04:28:00.731Z,26.20
2018-05-29T04:30:28.968Z,26.70
2018-05-29T04:32:57.991Z,25.63
2018-05-29T04:35:26.249Z,24.20
2018-05-29T04:37:55.252Z,26.30
2018-05-29T04:40:23.504Z,24.77
2018-05-29T04:42:52.515Z,26.73
2018-05-29T04:45:20.771Z,25.90
2018-05-29T04:47:49.779Z,25.87
2018-05-29T04:50:18.056Z,25.43
2018-05-29T04:52:47.047Z,25.40
2018-05-29T04:55:15.800Z,25.00
2018-05-29T04:57:44.011Z,24.53
2018-05-29T05:00:12.268Z,24.50
2018-05-29T05:02:41.272Z,24.80
2018-05-29T05:05:09.547Z,24.80
2018-05-29T05:07:37.786Z,23.80
2018-05-29T05:10:06.035Z,24.67
2018-05-29T05:12:34.279Z,24.20
2018-05-29T05:15:02.531Z,22.83
2018-05-29T05:17:31.540Z,23.47
2018-05-29T05:19:59.798Z,23.67
2018-05-29T05:22:28.796Z,22.77
2018-05-29T05:24:57.053Z,23.93
2018-05-29T05:27:26.059Z,23.47
2018-05-29T05:29:54.315Z,23.03
2018-05-29T05:32:23.320Z,22.30
2018-05-29T05:34:52.342Z,22.03
2018-05-29T05:37:20.575Z,21.93
2018-05-29T05:39:49.611Z,21.70
2018-05-29T05:42:17.843Z,22.50
2018-05-29T05:44:46.867Z,20.97
2018-05-29T05:47:15.113Z,19.97
2018-05-29T05:49:43.376Z,20.77
2018-05-29T05:52:11.612Z,21.20
2018-05-29T05:54:39.869Z,20.50
2018-05-29T05:57:08.107Z,20.93
2018-05-29T05:59:37.153Z,20.33
2018-05-29T06:02:05.375Z,21.27
2018-05-29T06:04:34.395Z,21.13
2018-05-29T06:07:02.636Z,21.37
2018-05-29T06:09:31.660Z,20.50
2018-05-29T06:11:59.899Z,20.23
2018-05-29T06:14:28.923Z,20.67
2018-05-29T06:16:57.164Z,20.83
2018-05-29T06:19:26.185Z,20.57
2018-05-29T06:21:54.435Z,19.40
2018-05-29T06:24:23.501Z,20.10
2018-05-29T06:26:51.699Z,20.10
2018-05-29T06:35:22.458Z,19.27
2018-05-29T06:37:50.667Z,19.00
2018-05-29T06:40:18.929Z,19.10
2018-05-29T06:42:47.928Z,19.27
2018-05-29T06:45:16.187Z,18.70
2018-05-29T06:47:45.186Z,18.90
2018-05-29T06:50:13.444Z,17.95
2018-05-29T06:52:42.452Z,17.67
2018-05-29T06:55:10.711Z,17.70
2018-05-29T06:57:40.104Z,18.15
2018-05-29T07:00:08.327Z,18.12
2018-05-29T07:02:36.563Z,18.40
2018-05-29T07:05:05.590Z,18.02
2018-05-29T07:07:33.827Z,17.90
2018-05-29T07:10:02.857Z,18.40
2018-05-29T07:12:31.594Z,18.73
2018-05-29T07:14:59.822Z,17.48
2018-05-29T07:17:28.063Z,17.85
2018-05-29T07:19:57.105Z,17.62
2018-05-29T07:22:25.331Z,18.33
2018-05-29T07:24:54.367Z,18.45
2018-05-29T07:27:22.624Z,17.30
2018-05-29T07:29:50.856Z,17.10
2018-05-29T07:32:19.871Z,17.08
2018-05-29T07:34:48.120Z,17.55
2018-05-29T07:37:17.138Z,17.67
2018-05-29T07:39:45.389Z,18.25
2018-05-29T07:42:13.634Z,19.25
2018-05-29T07:44:41.892Z,17.60
2018-05-29T07:47:10.148Z,17.60
2018-05-29T07:49:38.400Z,16.90
2018-05-29T07:52:06.655Z,17.85
2018-05-29T07:54:35.663Z,16.95
2018-05-29T07:57:03.928Z,16.77
2018-05-29T07:59:32.946Z,17.27
2018-05-29T08:02:01.196Z,16.87
2018-05-29T08:04:30.203Z,15.60
2018-05-29T08:06:58.459Z,17.55
2018-05-29T08:09:27.463Z,16.62
2018-05-29T08:11:55.719Z,17.35
2018-05-29T08:14:24.736Z,16.50
2018-05-29T08:16:52.998Z,15.82
2018-05-29T08:19:22.003Z,15.57
2018-05-29T08:21:50.259Z,16.42
2018-05-29T08:24:19.271Z,16.35
2018-05-29T08:26:47.925Z,16.92
2018-05-29T08:29:16.899Z,14.90
2018-05-29T08:31:45.161Z,15.45
2018-05-29T08:34:13.404Z,14.32
2018-05-29T08:36:41.667Z,15.20
2018-05-29T08:39:09.907Z,14.80
2018-05-29T08:41:38.167Z,15.02
2018-05-29T08:44:06.403Z,14.82
2018-05-29T08:46:34.667Z,14.30
2018-05-29T08:49:02.915Z,13.18
2018-05-29T08:51:31.934Z,13.20
2018-05-29T08:54:00.184Z,12.65
2018-05-29T08:56:29.573Z,12.65
2018-05-29T08:58:57.791Z,16.23
2018-05-29T09:01:26.039Z,12.05
2018-05-29T09:03:55.049Z,12.32
2018-05-29T09:06:23.297Z,12.88
2018-05-29T09:08:52.307Z,11.73
2018-05-29T09:11:20.560Z,11.18
2018-05-29T09:13:49.572Z,11.10
2018-05-29T09:16:17.831Z,11.95
2018-05-29T09:18:46.831Z,12.18
2018-05-29T09:21:15.856Z,10.32
2018-05-29T09:23:44.381Z,11.05
2018-05-29T09:26:12.589Z,10.63
2018-05-29T09:28:40.839Z,11.15
2018-05-29T09:31:09.831Z,13.65
2018-05-29T09:33:38.855Z,11.65
2018-05-29T09:36:07.103Z,9.15
2018-05-29T09:38:36.103Z,9.40
2018-05-29T09:41:04.326Z,9.05
2018-05-29T09:43:32.574Z,9.13
2018-05-29T09:46:00.847Z,8.93
2018-05-29T09:48:29.831Z,9.05
2018-05-29T09:50:58.060Z,9.43
2018-05-29T09:53:26.419Z,9.48
2018-05-29T09:55:54.643Z,9.50
2018-05-29T09:58:22.887Z,9.20
2018-05-29T10:00:51.119Z,8.98
2018-05-29T10:03:19.372Z,8.32
2018-05-29T10:05:47.612Z,9.45
2018-05-29T10:08:15.857Z,9.48
2018-05-29T10:10:44.108Z,10.38
2018-05-29T10:13:12.404Z,9.50
2018-05-29T10:15:40.710Z,12.43
2018-05-29T10:18:08.953Z,10.93
2018-05-29T10:20:37.192Z,16.25
2018-05-29T10:23:05.448Z,11.25
2018-05-29T10:25:34.455Z,10.68
2018-05-29T10:28:02.707Z,26.17
2018-05-29T10:30:31.709Z,32.85
2018-05-29T10:33:00.732Z,13.57
2018-05-29T10:35:28.968Z,10.57
2018-05-29T10:37:59.646Z,11.48
2018-05-29T10:40:27.888Z,12.63
2018-05-29T10:42:56.124Z,11.98
2018-05-29T10:45:24.388Z,10.57
2018-05-29T10:47:52.636Z,10.40
2018-05-29T10:50:20.903Z,10.30
2018-05-29T10:52:49.140Z,10.02
2018-05-29T10:55:18.449Z,9.70
2018-05-29T10:57:47.440Z,9.13
2018-05-29T11:00:16.565Z,9.85
2018-05-29T11:02:44.778Z,10.23
2018-05-29T11:05:13.028Z,10.75
2018-05-29T11:07:41.261Z,8.57
2018-05-29T11:10:09.507Z,8.73
2018-05-29T11:12:39.959Z,8.30
2018-05-29T11:15:08.205Z,11.60
2018-05-29T11:17:36.439Z,8.00
2018-05-29T11:20:04.707Z,7.97
2018-05-29T11:22:33.675Z,8.57
2018-05-29T11:25:01.927Z,7.55
2018-05-29T11:27:30.928Z,10.90
2018-05-29T11:29:59.952Z,11.75
2018-05-29T11:32:28.188Z,8.27
2018-05-29T11:34:57.199Z,8.10
2018-05-29T11:37:25.427Z,6.57
2018-05-29T11:39:53.688Z,6.75
2018-05-29T11:42:21.905Z,6.72
2018-05-29T11:44:50.911Z,8.05
2018-05-29T11:47:19.919Z,6.72
2018-05-29T11:49:48.194Z,7.12
2018-05-29T11:52:16.428Z,6.75
2018-05-29T11:54:44.656Z,10.88
2018-05-29T11:57:12.907Z,10.20
2018-05-29T11:59:41.137Z,8.35
2018-05-29T12:02:09.387Z,13.35
2018-05-29T12:04:37.621Z,7.95
2018-05-29T12:07:05.868Z,7.37
2018-05-29T12:09:34.095Z,7.12
2018-05-29T12:15:03.596Z,8.63
2018-05-29T12:17:32.256Z,7.43
2018-05-29T12:20:01.262Z,10.13
2018-05-29T12:22:30.741Z,7.62
2018-05-29T12:24:58.957Z,9.35
2018-05-29T12:27:27.203Z,7.85
2018-05-29T12:29:56.215Z,11.07
2018-05-29T12:32:24.468Z,7.28
2018-05-29T12:34:53.953Z,7.05
2018-05-29T12:37:22.167Z,8.00
2018-05-29T12:39:50.400Z,7.32
2018-05-29T12:42:18.642Z,9.13
2018-05-29T12:44:46.884Z,7.67
2018-05-29T12:47:15.156Z,8.27
2018-05-29T12:49:43.389Z,10.65
2018-05-29T12:52:11.641Z,12.88
2018-05-29T12:54:39.882Z,7.28
2018-05-29T12:57:08.123Z,9.25
2018-05-29T12:59:36.368Z,9.07
2018-05-29T13:02:04.621Z,9.10
2018-05-29T13:04:32.854Z,11.20
2018-05-29T13:07:01.867Z,7.90
2018-05-29T13:09:30.115Z,6.93
2018-05-29T13:11:58.360Z,7.68
2018-05-29T13:14:26.603Z,7.82
2018-05-29T13:16:54.862Z,8.60
2018-05-29T13:19:23.094Z,6.72
2018-05-29T13:21:51.345Z,7.62
2018-05-29T13:24:19.579Z,7.12
2018-05-29T13:26:47.832Z,6.97
2018-05-29T13:29:17.552Z,8.38
2018-05-29T13:31:46.555Z,8.18
2018-05-29T13:34:14.804Z,7.00
2018-05-29T13:36:43.815Z,8.10
2018-05-29T13:39:12.852Z,11.18
2018-05-29T13:41:41.067Z,8.90
2018-05-29T13:44:10.083Z,7.03
2018-05-29T13:46:38.314Z,7.45
2018-05-29T13:49:06.553Z,8.63
2018-05-29T13:51:34.802Z,6.93
2018-05-29T13:54:13.013Z,7.62
2018-05-29T13:56:41.240Z,7.72
2018-05-29T13:59:09.485Z,6.62
2018-05-29T14:01:37.707Z,6.72
2018-05-29T14:04:06.726Z,6.45
2018-05-29T14:06:35.178Z,7.53
2018-05-29T14:09:03.474Z,7.40
2018-05-29T14:11:31.647Z,7.10
2018-05-29T14:13:59.899Z,6.50
2018-05-29T14:16:28.912Z,6.93
2018-05-29T14:18:57.159Z,7.68
2018-05-29T14:21:25.398Z,7.43
2018-05-29T14:23:53.649Z,7.47
2018-05-29T14:26:21.868Z,7.75
2018-05-29T14:28:50.115Z,8.20
2018-05-29T14:31:18.352Z,7.57
2018-05-29T14:33:46.608Z,7.43
2018-05-29T14:36:15.895Z,7.65
2018-05-29T14:38:44.111Z,11.32
2018-05-29T14:41:29.078Z,8.82
2018-05-29T14:44:02.085Z,9.68
2018-05-29T14:46:30.307Z,7.45
2018-05-29T14:48:59.322Z,7.07
2018-05-29T14:51:27.551Z,7.97
2018-05-29T14:53:55.804Z,7.12
2018-05-29T14:56:24.823Z,8.98
2018-05-29T14:58:53.055Z,7.18
2018-05-29T15:01:21.302Z,7.32
2018-05-29T15:03:49.528Z,8.20
2018-05-29T15:06:17.779Z,7.47
2018-05-29T15:08:46.011Z,7.47
2018-05-29T15:11:15.027Z,7.30
2018-05-29T15:13:43.267Z,7.43
2018-05-29T15:16:11.510Z,10.27
2018-05-29T15:18:39.820Z,7.18
2018-05-29T15:21:07.986Z,7.65
2018-05-29T15:23:36.979Z,7.22
2018-05-29T15:26:06.058Z,8.05
2018-05-29T15:28:34.239Z,9.35
2018-05-29T15:31:03.267Z,8.13
2018-05-29T15:33:31.490Z,7.93
2018-05-29T15:35:59.736Z,7.75
2018-05-29T15:38:27.972Z,7.70
2018-05-29T15:40:56.987Z,7.75
2018-05-29T15:43:25.224Z,8.02
2018-05-29T15:45:54.246Z,8.00
2018-05-29T15:48:22.471Z,9.98
2018-05-29T15:50:50.720Z,10.40
2018-05-29T15:53:18.975Z,7.82
2018-05-29T15:55:47.201Z,8.07
2018-05-29T15:58:15.451Z,10.98
2018-05-29T16:00:43.704Z,8.65
2018-05-29T16:03:11.943Z,8.52
2018-05-29T16:05:40.952Z,7.93
2018-05-29T16:08:09.207Z,8.57
2018-05-29T16:10:38.214Z,8.93
2018-05-29T16:13:06.473Z,8.77
2018-05-29T16:15:35.479Z,9.95
2018-05-29T16:18:03.742Z,9.10
2018-05-29T16:20:32.802Z,9.00
2018-05-29T16:23:02.125Z,8.55
2018-05-29T16:25:30.367Z,8.52
2018-05-29T16:27:58.621Z,9.18
2018-05-29T16:30:26.852Z,9.18
2018-05-29T16:32:55.859Z,9.43
2018-05-29T16:35:24.321Z,9.60
2018-05-29T16:37:52.635Z,9.70
2018-05-29T16:40:21.067Z,10.07
2018-05-29T16:42:50.077Z,10.75
2018-05-29T16:45:18.592Z,9.38
2018-05-29T16:47:46.861Z,10.38
2018-05-29T16:50:15.246Z,9.40
2018-05-29T16:52:43.499Z,10.10
2018-05-29T16:55:11.736Z,12.95
2018-05-29T16:57:39.980Z,11.02
2018-05-29T17:00:08.208Z,9.90
2018-05-29T17:02:36.455Z,9.63
2018-05-29T17:05:04.691Z,9.25
2018-05-29T17:07:33.423Z,10.85
2018-05-29T17:10:01.689Z,9.40
2018-05-29T17:12:29.935Z,10.55
2018-05-29T17:14:58.170Z,9.30
2018-05-29T17:17:26.416Z,9.75
2018-05-29T17:19:55.421Z,10.20
2018-05-29T17:22:24.435Z,9.55
2018-05-29T17:24:53.086Z,9.30
2018-05-29T17:27:21.326Z,9.43
2018-05-29T17:29:50.339Z,10.20
2018-05-29T17:32:18.594Z,9.43
2018-05-29T17:34:46.827Z,10.13
2018-05-29T17:37:15.071Z,9.95
2018-05-29T17:39:44.159Z,9.68
2018-05-29T17:42:12.394Z,12.20
2018-05-29T17:44:40.631Z,11.45
2018-05-29T17:47:08.888Z,9.52
2018-05-29T17:49:37.115Z,11.07
2018-05-29T17:52:05.458Z,9.45
2018-05-29T17:54:34.708Z,9.45
2018-05-29T17:57:02.954Z,9.65
2018-05-29T17:59:31.190Z,9.90
2018-05-29T18:02:00.233Z,9.60
2018-05-29T18:04:28.470Z,8.95
2018-05-29T18:07:06.937Z,9.93
2018-05-29T18:09:35.175Z,9.50
2018-05-29T18:12:03.408Z,9.73
2018-05-29T18:14:31.657Z,10.45
2018-05-29T18:16:59.892Z,10.25
2018-05-29T18:19:28.155Z,12.02
2018-05-29T18:21:56.410Z,12.27
2018-05-29T18:24:25.431Z,12.52
2018-05-29T18:26:53.666Z,12.82
2018-05-29T18:29:22.695Z,14.13
2018-05-29T18:31:50.935Z,13.23
2018-05-29T18:34:19.955Z,13.45
2018-05-29T18:36:48.199Z,13.55
2018-05-29T18:39:17.229Z,11.50
2018-05-29T18:41:45.783Z,11.70
2018-05-29T18:44:14.794Z,17.62
2018-05-29T18:46:43.039Z,13.73
2018-05-29T18:49:12.064Z,15.82
2018-05-29T18:51:40.307Z,14.10
2018-05-29T18:54:09.713Z,11.82
2018-05-29T18:56:38.716Z,13.87
2018-05-29T18:59:06.976Z,15.93
2018-05-29T19:01:35.974Z,11.82
2018-05-29T19:04:04.991Z,11.60
2018-05-29T19:06:33.229Z,11.30
2018-05-29T19:09:01.484Z,12.33
2018-05-29T19:11:29.714Z,10.77
2018-05-29T19:13:57.966Z,10.53
2018-05-29T19:16:26.970Z,10.37
2018-05-29T19:18:55.220Z,11.00
2018-05-29T19:21:24.222Z,12.27
2018-05-29T19:23:53.264Z,10.10
2018-05-29T19:26:21.499Z,10.40
2018-05-29T19:28:49.808Z,9.57
2018-05-29T19:31:17.975Z,11.57
2018-05-29T19:33:46.221Z,9.70
2018-05-29T19:36:14.464Z,11.17
2018-05-29T19:38:42.986Z,11.77
2018-05-29T19:41:11.211Z,9.33
2018-05-29T19:43:39.455Z,9.77
2018-05-29T19:46:07.677Z,9.50
2018-05-29T19:48:36.686Z,9.47
2018-05-29T19:51:04.974Z,10.47
2018-05-29T19:53:33.174Z,9.73
2018-05-29T19:56:01.407Z,10.77
2018-05-29T19:58:29.654Z,10.57
2018-05-29T20:00:57.886Z,10.50
2018-05-29T20:03:30.116Z,10.03
2018-05-29T20:05:59.119Z,9.77
2018-05-29T20:08:27.354Z,10.13
2018-05-29T20:10:55.595Z,13.73
2018-05-29T20:13:23.834Z,9.57
2018-05-29T20:15:52.123Z,10.10
2018-05-29T20:18:21.092Z,11.00
2018-05-29T20:20:50.114Z,10.53
2018-05-29T20:23:18.348Z,11.10
2018-05-29T20:25:47.375Z,12.23
2018-05-29T20:28:15.611Z,11.47
2018-05-29T20:30:44.631Z,11.20
2018-05-29T20:33:12.879Z,11.90
2018-05-29T20:35:41.136Z,12.00
2018-05-29T20:38:09.367Z,13.97
2018-05-29T20:40:37.631Z,11.03
2018-05-29T20:43:06.806Z,9.90
2018-05-29T20:45:35.815Z,10.67
2018-05-29T20:48:04.050Z,10.13
2018-05-29T20:50:32.304Z,10.30
2018-05-29T20:53:00.539Z,10.33
2018-05-29T20:55:28.787Z,10.73
2018-05-29T20:57:57.803Z,10.17
2018-05-29T21:00:26.049Z,10.97
2018-05-29T21:02:55.052Z,11.03
2018-05-29T21:05:24.435Z,10.40
2018-05-29T21:07:52.675Z,14.07
2018-05-29T21:10:20.934Z,10.63
2018-05-29T21:12:49.159Z,10.77
2018-05-29T21:15:18.176Z,11.87
2018-05-29T21:17:46.418Z,14.87
2018-05-29T21:20:14.675Z,17.30
2018-05-29T21:22:42.906Z,21.23
2018-05-29T21:25:11.163Z,18.00
2018-05-29T21:27:39.404Z,16.90
2018-05-29T21:30:07.663Z,17.30
2018-05-29T21:32:35.898Z,24.37
2018-05-29T21:35:04.175Z,33.70
2018-05-29T21:37:33.169Z,24.87
2018-05-29T21:40:01.432Z,24.40
2018-05-29T21:42:30.987Z,25.00
2018-05-29T21:44:59.311Z,17.60
2018-05-29T21:47:27.556Z,19.57
2018-05-29T21:49:55.808Z,19.80
2018-05-29T21:52:24.071Z,26.67
2018-05-29T21:54:52.310Z,19.70
2018-05-29T21:57:20.575Z,19.33
2018-05-29T21:59:49.596Z,19.13
2018-05-29T22:02:17.851Z,23.77
2018-05-29T22:04:46.102Z,18.37
2018-05-29T22:07:15.509Z,19.93
2018-05-29T22:09:44.508Z,17.30
2018-05-29T22:12:13.526Z,17.20
2018-05-29T22:14:41.822Z,16.30
2018-05-29T22:17:10.791Z,17.33
2018-05-29T22:19:39.032Z,14.60
2018-05-29T22:22:08.075Z,14.57
2018-05-29T22:24:36.299Z,13.90
2018-05-29T22:27:05.324Z,14.37
2018-05-29T22:29:33.563Z,14.20
2018-05-29T22:32:02.587Z,15.27
2018-05-29T22:34:30.827Z,15.13
2018-05-29T22:36:59.103Z,18.03
2018-05-29T22:39:28.111Z,15.23
2018-05-29T22:41:56.351Z,16.40
2018-05-29T22:44:24.604Z,17.73
2018-05-29T22:46:52.835Z,18.43
2018-05-29T22:49:21.092Z,18.77
2018-05-29T22:51:50.099Z,19.93
2018-05-29T22:54:18.355Z,18.17
2018-05-29T22:56:47.359Z,20.70
2018-05-29T22:59:15.620Z,19.40
2018-05-29T23:01:44.633Z,21.57
2018-05-29T23:04:13.640Z,19.40
2018-05-29T23:06:41.883Z,20.93
2018-05-29T23:09:10.915Z,20.50
2018-05-29T23:11:39.163Z,21.07
2018-05-29T23:14:07.419Z,20.03
2018-05-29T23:16:36.423Z,19.23
2018-05-29T23:19:04.683Z,19.73
2018-05-29T23:21:33.691Z,21.83
2018-05-29T23:24:01.955Z,19.43
2018-05-29T23:26:30.971Z,20.17
2018-05-29T23:28:59.223Z,20.07
2018-05-29T23:31:28.232Z,22.33
2018-05-29T23:33:56.486Z,20.63
2018-05-29T23:36:25.495Z,21.43
2018-05-29T23:38:53.752Z,20.73
2018-05-29T23:41:22.776Z,22.73
2018-05-29T23:43:51.015Z,21.40
2018-05-29T23:46:20.053Z,24.33
2018-05-29T23:48:48.282Z,22.63
2018-05-29T23:51:17.312Z,22.10
2018-05-29T23:53:45.563Z,23.60
2018-05-29T23:56:14.576Z,22.40
2018-05-29T23:58:42.820Z,23.33
